createdAt,value
2022-11-17T00:01:25.762Z,97872.31
2022-11-17T00:03:54.269Z,97862.75
2022-11-17T00:06:22.587Z,97849.66
2022-11-17T00:08:53.237Z,97838.34
2022-11-17T00:11:22.760Z,97838.34
2022-11-17T00:14:09.917Z,97822.66
2022-11-17T00:16:38.251Z,97820.06
2022-11-17T00:19:24.088Z,97806.97
2022-11-17T00:21:53.738Z,97784.34
2022-11-17T00:24:23.674Z,97781.72
2022-11-17T00:27:05.890Z,97768.63
2022-11-17T00:29:39.180Z,97767.75
2022-11-17T00:32:28.635Z,97763.41
2022-11-17T00:34:56.929Z,97763.41
2022-11-17T00:37:25.889Z,97754.69
2022-11-17T00:40:00.300Z,97749.47
2022-11-17T00:42:29.181Z,97746.00
2022-11-17T00:44:58.829Z,97744.25
2022-11-17T00:47:27.107Z,97751.22
2022-11-17T00:49:55.420Z,97733.81
2022-11-17T00:52:23.737Z,97739.03
2022-11-17T00:54:52.071Z,97739.03
2022-11-17T00:57:20.397Z,97725.09
2022-11-17T00:59:48.684Z,97724.25
2022-11-17T01:02:18.566Z,97702.44
2022-11-17T01:04:46.909Z,97717.25
2022-11-17T01:07:15.271Z,97714.69
2022-11-17T01:09:43.642Z,97694.63
2022-11-17T01:12:12.026Z,97695.53
2022-11-17T01:14:40.565Z,97690.28
2022-11-17T01:17:09.035Z,97684.16
2022-11-17T01:19:38.712Z,97694.66
2022-11-17T01:22:07.080Z,97678.97
2022-11-17T01:24:35.378Z,97684.22
2022-11-17T01:27:03.775Z,97683.34
2022-11-17T01:29:32.268Z,97676.41
2022-11-17T01:32:00.538Z,97667.66
2022-11-17T01:34:28.832Z,97651.13
2022-11-17T01:37:15.980Z,97651.16
2022-11-17T01:39:44.976Z,97643.31
2022-11-17T01:42:16.617Z,97648.53
2022-11-17T01:44:55.376Z,97643.31
2022-11-17T01:47:28.593Z,97642.47
2022-11-17T01:50:02.006Z,97619.78
2022-11-17T01:52:35.712Z,97597.16
2022-11-17T01:55:05.232Z,97603.22
2022-11-17T01:57:39.222Z,97589.31
2022-11-17T02:00:10.217Z,97592.81
2022-11-17T02:02:40.906Z,97592.81
2022-11-17T02:05:20.870Z,97569.28
2022-11-17T02:07:53.608Z,97582.34
2022-11-17T02:10:22.086Z,97564.94
2022-11-17T02:12:53.257Z,97567.56
2022-11-17T02:15:21.996Z,97568.44
2022-11-17T02:17:51.749Z,97563.19
2022-11-17T02:20:30.894Z,97560.59
2022-11-17T02:23:36.011Z,97563.19
2022-11-17T02:26:55.454Z,97554.50
2022-11-17T02:29:31.293Z,97557.97
2022-11-17T02:32:07.448Z,97561.50
2022-11-17T02:34:44.508Z,97550.13
2022-11-17T02:37:21.560Z,97547.50
2022-11-17T02:40:00.224Z,97544.91
2022-11-17T02:42:53.642Z,97543.13
2022-11-17T02:45:28.899Z,97549.25
2022-11-17T02:48:01.315Z,97542.28
2022-11-17T02:50:30.743Z,97530.09
2022-11-17T02:52:59.482Z,97535.34
2022-11-17T02:55:27.831Z,97538.78
2022-11-17T02:57:56.162Z,97530.94
2022-11-17T03:00:28.046Z,97527.44
2022-11-17T03:03:20.659Z,97530.09
2022-11-17T03:05:57.531Z,97508.31
2022-11-17T03:08:35.418Z,97513.56
2022-11-17T03:11:05.572Z,97514.47
2022-11-17T03:13:46.768Z,97508.34
2022-11-17T03:16:24.702Z,97505.72
2022-11-17T03:19:05.334Z,97511.00
2022-11-17T03:21:37.774Z,97506.63
2022-11-17T03:24:12.763Z,97496.16
2022-11-17T03:26:46.912Z,97492.72
2022-11-17T03:29:20.154Z,97486.63
2022-11-17T03:31:53.340Z,97489.22
2022-11-17T03:34:25.265Z,97491.00
2022-11-17T03:37:00.617Z,97487.50
2022-11-17T03:39:33.530Z,97483.16
2022-11-17T03:42:07.816Z,97471.00
2022-11-17T03:44:41.064Z,97465.75
2022-11-17T03:47:14.180Z,97446.56
2022-11-17T03:49:49.809Z,97453.56
2022-11-17T03:52:19.053Z,97457.91
2022-11-17T03:54:47.426Z,97453.53
2022-11-17T03:57:20.977Z,97457.00
2022-11-17T03:59:58.162Z,97441.31
2022-11-17T04:02:28.288Z,97443.03
2022-11-17T04:05:08.983Z,97443.03
2022-11-17T04:07:40.079Z,97443.03
2022-11-17T04:10:10.681Z,97444.78
2022-11-17T04:12:56.789Z,97416.88
2022-11-17T04:15:42.821Z,97426.50
2022-11-17T04:18:12.639Z,97423.91
2022-11-17T04:20:40.944Z,97410.00
2022-11-17T04:23:13.961Z,97422.22
2022-11-17T04:26:01.966Z,97417.00
2022-11-17T04:28:37.948Z,97412.69
2022-11-17T04:31:14.974Z,97409.16
2022-11-17T04:33:46.633Z,97404.00
2022-11-17T04:36:17.364Z,97415.31
2022-11-17T04:38:47.493Z,97405.69
2022-11-17T04:41:34.810Z,97401.38
2022-11-17T04:44:04.258Z,97404.84
2022-11-17T04:46:34.600Z,97390.94
2022-11-17T04:49:05.245Z,97398.81
2022-11-17T04:51:34.825Z,97403.16
2022-11-17T04:54:04.117Z,97384.00
2022-11-17T04:56:32.813Z,97397.97
2022-11-17T04:59:01.158Z,97384.03
2022-11-17T05:01:29.962Z,97388.41
2022-11-17T05:04:00.262Z,97384.91
2022-11-17T05:06:33.031Z,97380.56
2022-11-17T05:09:03.277Z,97384.94
2022-11-17T05:11:49.471Z,97388.41
2022-11-17T05:14:19.309Z,97381.47
2022-11-17T05:17:09.442Z,97380.63
2022-11-17T05:19:39.898Z,97398.03
2022-11-17T05:22:24.751Z,97411.94
2022-11-17T05:24:53.509Z,97394.47
2022-11-17T05:27:22.102Z,97396.22
2022-11-17T05:29:50.418Z,97397.97
2022-11-17T05:32:19.304Z,97396.22
2022-11-17T05:34:47.638Z,97400.59
2022-11-17T05:37:17.375Z,97396.22
2022-11-17T05:39:45.676Z,97397.97
2022-11-17T05:42:13.940Z,97392.75
2022-11-17T05:44:42.283Z,97392.75
2022-11-17T05:47:10.574Z,97385.75
2022-11-17T05:49:38.877Z,97384.00
2022-11-17T05:52:07.187Z,97380.53
2022-11-17T05:54:36.830Z,97380.53
2022-11-17T05:57:10.602Z,97381.38
2022-11-17T05:59:43.725Z,97384.00
2022-11-17T06:02:15.685Z,97384.00
2022-11-17T06:04:46.190Z,97389.22
2022-11-17T06:07:14.627Z,97389.22
2022-11-17T06:09:44.333Z,97384.84
2022-11-17T06:12:12.811Z,97393.59
2022-11-17T06:14:41.079Z,97395.31
2022-11-17T06:17:21.906Z,97397.91
2022-11-17T06:19:56.131Z,97399.66
2022-11-17T06:22:26.439Z,97411.84
2022-11-17T06:24:56.805Z,97409.22
2022-11-17T06:27:26.489Z,97403.16
2022-11-17T06:29:57.213Z,97411.84
2022-11-17T06:32:25.630Z,97401.38
2022-11-17T06:34:56.401Z,97403.09
2022-11-17T06:37:25.528Z,97410.06
2022-11-17T06:39:53.911Z,97413.53
2022-11-17T06:42:43.776Z,97408.25
2022-11-17T06:45:12.664Z,97407.38
2022-11-17T06:47:41.075Z,97414.38
2022-11-17T06:50:09.991Z,97420.47
2022-11-17T06:52:38.870Z,97420.47
2022-11-17T06:55:08.671Z,97409.09
2022-11-17T06:57:38.553Z,97406.50
2022-11-17T07:00:08.114Z,97411.72
2022-11-17T07:02:37.166Z,97422.19
2022-11-17T07:05:06.117Z,97424.78
2022-11-17T07:07:34.624Z,97421.31
2022-11-17T07:10:03.094Z,97425.69
2022-11-17T07:12:31.479Z,97423.94
2022-11-17T07:15:01.203Z,97434.38
2022-11-17T07:17:29.897Z,97437.84
2022-11-17T07:19:58.324Z,97438.72
2022-11-17T07:22:26.701Z,97429.09
2022-11-17T07:24:55.113Z,97423.03
2022-11-17T07:27:23.544Z,97421.25
2022-11-17T07:29:51.964Z,97426.44
2022-11-17T07:32:22.077Z,97427.31
2022-11-17T07:34:50.526Z,97439.50
2022-11-17T07:37:18.946Z,97456.88
2022-11-17T07:39:47.387Z,97462.97
2022-11-17T07:42:15.780Z,97455.13
2022-11-17T07:44:45.545Z,97464.69
2022-11-17T07:47:13.986Z,97475.13
2022-11-17T07:49:43.747Z,97463.75
2022-11-17T07:52:12.161Z,97468.13
2022-11-17T07:54:40.671Z,97465.50
2022-11-17T07:57:09.078Z,97462.91
2022-11-17T07:59:37.487Z,97474.22
2022-11-17T08:02:05.895Z,97479.44
2022-11-17T08:04:34.327Z,97490.75
2022-11-17T08:07:04.239Z,97540.47
2022-11-17T08:09:32.825Z,97522.19
2022-11-17T08:12:01.242Z,97509.13
2022-11-17T08:14:33.224Z,97514.41
2022-11-17T08:17:02.084Z,97517.09
2022-11-17T08:19:30.469Z,97518.84
2022-11-17T08:21:58.882Z,97532.84
2022-11-17T08:24:28.596Z,97534.63
2022-11-17T08:26:57.023Z,97536.38
2022-11-17T08:29:25.478Z,97541.59
2022-11-17T08:31:53.889Z,97548.59
2022-11-17T08:34:22.307Z,97537.28
2022-11-17T08:36:50.609Z,97539.88
2022-11-17T08:39:18.987Z,97546.88
2022-11-17T08:41:48.708Z,97542.50
2022-11-17T08:44:17.043Z,97538.13
2022-11-17T08:46:45.388Z,97544.25
2022-11-17T08:49:13.909Z,97546.03
2022-11-17T08:51:42.293Z,97551.25
2022-11-17T08:54:12.526Z,97550.34
2022-11-17T08:56:40.925Z,97546.03
2022-11-17T08:59:13.060Z,97547.72
2022-11-17T09:01:41.709Z,97555.59
2022-11-17T09:04:10.100Z,97552.97
2022-11-17T09:06:38.916Z,97563.41
2022-11-17T09:09:07.318Z,97562.50
2022-11-17T09:11:35.708Z,97560.75
2022-11-17T09:14:04.112Z,97561.59
2022-11-17T09:16:33.908Z,97565.94
2022-11-17T09:19:02.730Z,97566.78
2022-11-17T09:21:32.400Z,97568.53
2022-11-17T09:24:00.771Z,97572.00
2022-11-17T09:26:29.023Z,97578.94
2022-11-17T09:28:57.308Z,97584.16
2022-11-17T09:31:25.756Z,97589.34
2022-11-17T09:33:58.280Z,97595.44
2022-11-17T09:36:27.825Z,97595.44
2022-11-17T09:38:56.135Z,97602.38
2022-11-17T09:41:27.753Z,97605.84
2022-11-17T09:44:05.616Z,97599.69
2022-11-17T09:46:51.687Z,97606.66
2022-11-17T09:49:33.866Z,97604.88
2022-11-17T09:52:07.957Z,97603.97
2022-11-17T09:54:44.088Z,97606.56
2022-11-17T09:57:22.448Z,97604.81
2022-11-17T10:00:03.697Z,97610.00
2022-11-17T10:02:33.333Z,97617.78
2022-11-17T10:05:03.690Z,97620.34
2022-11-17T10:07:35.323Z,97625.53
2022-11-17T10:10:04.795Z,97620.28
2022-11-17T10:12:38.904Z,97625.47
2022-11-17T10:15:23.037Z,97622.78
2022-11-17T10:17:51.991Z,97626.25
2022-11-17T10:20:21.878Z,97628.88
2022-11-17T10:22:53.170Z,97623.59
2022-11-17T10:25:37.752Z,97634.06
2022-11-17T10:28:08.332Z,97634.91
2022-11-17T10:30:37.033Z,97634.00
2022-11-17T10:33:05.731Z,97642.69
2022-11-17T10:35:36.714Z,97649.69
2022-11-17T10:38:09.914Z,97635.69
2022-11-17T10:40:49.299Z,97645.25
2022-11-17T10:43:24.477Z,97643.50
2022-11-17T10:45:56.145Z,97639.09
2022-11-17T10:48:28.564Z,97646.94
2022-11-17T10:50:59.777Z,97658.25
2022-11-17T10:53:31.636Z,97650.34
2022-11-17T10:56:05.718Z,97649.44
2022-11-17T10:58:56.017Z,97649.41
2022-11-17T11:01:31.065Z,97656.34
2022-11-17T11:03:59.467Z,97651.06
2022-11-17T11:06:30.560Z,97657.97
2022-11-17T11:09:02.110Z,97662.28
2022-11-17T11:11:46.082Z,97664.03
2022-11-17T11:14:25.903Z,97663.13
2022-11-17T11:16:56.121Z,97668.31
2022-11-17T11:19:25.332Z,97661.25
2022-11-17T11:22:21.499Z,97655.09
2022-11-17T11:25:26.470Z,97663.78
2022-11-17T11:28:32.206Z,97672.44
2022-11-17T11:31:22.221Z,97675.03
2022-11-17T11:34:31.916Z,97678.47
2022-11-17T11:37:20.602Z,97681.09
2022-11-17T11:39:56.279Z,97674.94
2022-11-17T11:42:44.888Z,97687.13
2022-11-17T11:45:25.237Z,97685.41
2022-11-17T11:48:24.341Z,97693.25
2022-11-17T11:50:57.580Z,97692.38
2022-11-17T11:53:32.813Z,97694.13
2022-11-17T11:56:09.532Z,97697.59
2022-11-17T11:58:45.118Z,97700.22
2022-11-17T12:01:17.140Z,97698.50
2022-11-17T12:03:51.000Z,97709.78
2022-11-17T12:06:42.116Z,97708.91
2022-11-17T12:09:20.848Z,97708.88
2022-11-17T12:12:02.953Z,97701.00
2022-11-17T12:14:33.566Z,97707.94
2022-11-17T12:17:06.534Z,97707.94
2022-11-17T12:19:53.990Z,97706.97
2022-11-17T12:22:50.342Z,97717.41
2022-11-17T12:25:29.391Z,97709.50
2022-11-17T12:27:57.873Z,97706.00
2022-11-17T12:30:53.130Z,97710.34
2022-11-17T12:33:22.581Z,97707.72
2022-11-17T12:36:30.613Z,97712.97
2022-11-17T12:39:01.168Z,97716.50
2022-11-17T12:42:02.946Z,97715.66
2022-11-17T12:45:00.204Z,97720.06
2022-11-17T12:47:31.200Z,97729.69
2022-11-17T12:50:21.167Z,97723.59
2022-11-17T12:53:12.372Z,97714.94
2022-11-17T12:56:13.864Z,97722.81
2022-11-17T12:58:53.210Z,97722.88
2022-11-17T13:01:32.892Z,97726.41
2022-11-17T13:04:11.325Z,97725.56
2022-11-17T13:06:40.631Z,97738.66
2022-11-17T13:09:13.198Z,97730.84
2022-11-17T13:11:41.560Z,97729.97
2022-11-17T13:14:12.134Z,97736.97
2022-11-17T13:16:47.632Z,97734.34
2022-11-17T13:19:32.766Z,97729.09
2022-11-17T13:22:03.663Z,97735.19
2022-11-17T13:24:34.175Z,97729.94
2022-11-17T13:27:03.766Z,97741.28
2022-11-17T13:29:32.212Z,97737.75
2022-11-17T13:32:13.477Z,97739.50
2022-11-17T13:34:50.686Z,97741.22
2022-11-17T13:37:21.462Z,97741.19
2022-11-17T13:40:01.270Z,97742.91
2022-11-17T13:42:33.078Z,97744.63
2022-11-17T13:45:04.512Z,97748.09
2022-11-17T13:47:46.511Z,97743.72
2022-11-17T13:50:35.315Z,97746.31
2022-11-17T13:53:07.060Z,97743.69
2022-11-17T13:55:36.452Z,97747.19
2022-11-17T13:58:07.900Z,97744.53
2022-11-17T14:00:36.729Z,97745.41
2022-11-17T14:03:27.478Z,97743.63
2022-11-17T14:05:57.462Z,97745.41
2022-11-17T14:08:29.562Z,97737.50
2022-11-17T14:11:07.681Z,97750.59
2022-11-17T14:13:40.333Z,97750.59
2022-11-17T14:16:25.692Z,97754.97
2022-11-17T14:19:05.256Z,97757.59
2022-11-17T14:21:34.283Z,97758.47
2022-11-17T14:24:11.483Z,97765.44
2022-11-17T14:26:45.314Z,97764.53
2022-11-17T14:29:14.473Z,97760.22
2022-11-17T14:31:43.257Z,97763.69
2022-11-17T14:34:13.715Z,97767.16
2022-11-17T14:36:42.533Z,97761.94
2022-11-17T14:39:16.075Z,97767.16
2022-11-17T14:41:45.672Z,97768.91
2022-11-17T14:44:14.486Z,97768.91
2022-11-17T14:46:43.806Z,97773.28
2022-11-17T14:49:14.104Z,97767.16
2022-11-17T14:51:42.811Z,97774.16
2022-11-17T14:54:11.247Z,97769.78
2022-11-17T14:56:39.826Z,97776.78
2022-11-17T14:59:09.385Z,97771.53
2022-11-17T15:01:38.677Z,97780.28
2022-11-17T15:04:34.410Z,97781.13
2022-11-17T15:06:58.019Z,97784.66
2022-11-17T15:09:26.433Z,97784.66
2022-11-17T15:11:54.860Z,97782.91
2022-11-17T15:14:24.146Z,97784.66
2022-11-17T15:16:52.553Z,97782.03
2022-11-17T15:19:20.980Z,97785.56
2022-11-17T15:21:49.384Z,97788.19
2022-11-17T15:24:19.167Z,97799.53
2022-11-17T15:26:47.533Z,97798.69
2022-11-17T15:29:16.368Z,97798.69
2022-11-17T15:31:44.983Z,97795.22
2022-11-17T15:34:18.767Z,97797.88
2022-11-17T15:36:48.904Z,97794.38
2022-11-17T15:39:19.151Z,97803.13
2022-11-17T15:41:48.739Z,97802.22
2022-11-17T15:44:18.633Z,97800.50
2022-11-17T15:46:48.109Z,97804.88
2022-11-17T15:49:17.257Z,97809.28
2022-11-17T15:51:45.860Z,97811.00
2022-11-17T15:54:20.058Z,97812.75
2022-11-17T15:56:50.892Z,97817.16
2022-11-17T15:59:19.787Z,97823.28
2022-11-17T16:01:48.716Z,97828.53
2022-11-17T16:04:17.382Z,97829.38
2022-11-17T16:06:47.219Z,97837.25
2022-11-17T16:09:17.153Z,97833.78
2022-11-17T16:11:46.091Z,97842.50
2022-11-17T16:14:15.901Z,97846.03
2022-11-17T16:16:46.681Z,97846.03
2022-11-17T16:19:15.350Z,97837.31
2022-11-17T16:21:44.464Z,97854.81
2022-11-17T16:24:13.196Z,97846.13
2022-11-17T16:26:41.612Z,97852.25
2022-11-17T16:29:10.073Z,97860.09
2022-11-17T16:31:40.474Z,97865.34
2022-11-17T16:34:13.129Z,97858.38
2022-11-17T16:36:43.574Z,97860.09
2022-11-17T16:39:16.660Z,97867.09
2022-11-17T16:41:46.474Z,97864.47
2022-11-17T16:44:16.451Z,97867.09
2022-11-17T16:46:47.713Z,97861.84
2022-11-17T16:49:18.267Z,97862.72
2022-11-17T16:51:50.961Z,97863.56
2022-11-17T16:54:20.314Z,97861.84
2022-11-17T16:56:48.989Z,97866.19
2022-11-17T16:59:17.586Z,97875.78
2022-11-17T17:01:48.090Z,97866.19
2022-11-17T17:04:16.420Z,97868.81
2022-11-17T17:06:46.238Z,97874.00
2022-11-17T17:09:16.197Z,97876.66
2022-11-17T17:11:44.956Z,97882.75
2022-11-17T17:14:14.707Z,97878.38
2022-11-17T17:16:43.747Z,97883.63
2022-11-17T17:19:15.014Z,97879.28
2022-11-17T17:21:45.407Z,97883.69
2022-11-17T17:24:14.326Z,97884.59
2022-11-17T17:26:42.969Z,97893.34
2022-11-17T17:29:12.391Z,97891.63
2022-11-17T17:31:42.429Z,97885.56
2022-11-17T17:34:13.881Z,97888.22
2022-11-17T17:36:42.298Z,97891.75
2022-11-17T17:39:14.488Z,97889.19
2022-11-17T17:41:44.225Z,97894.47
2022-11-17T17:44:16.484Z,97896.22
2022-11-17T17:46:45.636Z,97891.91
2022-11-17T17:49:15.871Z,97901.53
2022-11-17T17:51:45.265Z,97907.66
2022-11-17T17:54:16.963Z,97908.56
2022-11-17T17:56:45.898Z,97922.56
2022-11-17T17:59:15.807Z,97922.59
2022-11-17T18:01:46.072Z,97923.50
2022-11-17T18:04:17.092Z,97928.81
2022-11-17T18:06:47.893Z,97926.22
2022-11-17T18:09:19.242Z,97927.97
2022-11-17T18:11:50.047Z,97931.50
2022-11-17T18:14:24.121Z,97932.41
2022-11-17T18:16:54.058Z,97930.69
2022-11-17T18:19:28.262Z,97928.09
2022-11-17T18:21:59.876Z,97923.75
2022-11-17T18:24:28.336Z,97933.41
2022-11-17T18:26:56.693Z,97941.25
2022-11-17T18:29:25.192Z,97940.44
2022-11-17T18:31:53.712Z,97944.84
2022-11-17T18:34:25.287Z,97937.91
2022-11-17T18:36:55.499Z,97948.38
2022-11-17T18:39:23.930Z,97944.03
2022-11-17T18:41:52.338Z,97955.38
2022-11-17T18:44:20.852Z,97965.00
2022-11-17T18:46:49.339Z,97957.22
2022-11-17T18:49:18.069Z,97958.97
2022-11-17T18:51:48.397Z,97960.72
2022-11-17T18:54:16.965Z,97964.22
2022-11-17T18:56:45.491Z,97965.97
2022-11-17T18:59:14.268Z,97976.44
2022-11-17T19:01:44.049Z,97970.34
2022-11-17T19:04:14.744Z,97974.72
2022-11-17T19:06:43.348Z,97973.88
2022-11-17T19:09:17.671Z,97975.59
2022-11-17T19:11:46.217Z,97977.34
2022-11-17T19:14:14.559Z,97979.94
2022-11-17T19:16:45.099Z,97977.34
2022-11-17T19:19:15.138Z,97986.03
2022-11-17T19:21:44.442Z,97992.16
2022-11-17T19:24:15.165Z,97994.78
2022-11-17T19:26:44.120Z,97991.31
2022-11-17T19:29:17.083Z,97993.94
2022-11-17T19:31:46.667Z,98007.03
2022-11-17T19:34:15.585Z,98011.41
2022-11-17T19:36:44.488Z,98007.06
2022-11-17T19:39:15.035Z,98015.78
2022-11-17T19:41:45.036Z,98015.78
2022-11-17T19:44:13.576Z,98022.81
2022-11-17T19:46:43.184Z,98029.75
2022-11-17T19:49:12.943Z,98033.25
2022-11-17T19:51:41.857Z,98028.06
2022-11-17T19:54:13.284Z,98032.38
2022-11-17T19:56:43.115Z,98041.09
2022-11-17T19:59:16.050Z,98038.50
2022-11-17T20:01:45.985Z,98042.88
2022-11-17T20:04:14.630Z,98046.34
2022-11-17T20:06:43.055Z,98053.31
2022-11-17T20:09:13.803Z,98055.03
2022-11-17T20:11:44.127Z,98056.78
2022-11-17T20:14:14.265Z,98058.53
2022-11-17T20:16:42.675Z,98062.03
2022-11-17T20:19:12.148Z,98073.41
2022-11-17T20:21:40.720Z,98069.03
2022-11-17T20:24:09.718Z,98074.25
2022-11-17T20:26:40.819Z,98079.50
2022-11-17T20:29:10.806Z,98075.16
2022-11-17T20:31:39.240Z,98077.78
2022-11-17T20:34:07.983Z,98082.13
2022-11-17T20:36:36.489Z,98083.00
2022-11-17T20:39:07.303Z,98074.31
2022-11-17T20:41:35.880Z,98090.00
2022-11-17T20:44:04.503Z,98090.00
2022-11-17T20:46:34.254Z,98089.13
2022-11-17T20:49:02.642Z,98084.78
2022-11-17T20:51:32.181Z,98092.63
2022-11-17T20:54:00.649Z,98102.22
2022-11-17T20:56:29.038Z,98102.19
2022-11-17T20:58:57.396Z,98099.63
2022-11-17T21:01:25.940Z,98104.84
2022-11-17T21:03:55.737Z,98109.19
2022-11-17T21:06:24.271Z,98112.69
2022-11-17T21:08:53.338Z,98110.06
2022-11-17T21:11:41.625Z,98112.72
2022-11-17T21:14:11.731Z,98119.69
2022-11-17T21:16:41.536Z,98119.66
2022-11-17T21:19:11.336Z,98130.09
2022-11-17T21:21:39.994Z,98133.59
2022-11-17T21:24:09.060Z,98131.00
2022-11-17T21:26:37.537Z,98131.03
2022-11-17T21:29:16.933Z,98130.16
2022-11-17T21:31:45.321Z,98142.34
2022-11-17T21:34:17.616Z,98130.16
2022-11-17T21:36:46.303Z,98144.09
2022-11-17T21:39:18.648Z,98132.78
2022-11-17T21:41:47.273Z,98140.59
2022-11-17T21:44:15.782Z,98137.16
2022-11-17T21:46:44.192Z,98139.75
2022-11-17T21:49:12.594Z,98145.88
2022-11-17T21:51:42.332Z,98139.75
2022-11-17T21:54:10.857Z,98151.97
2022-11-17T21:56:40.254Z,98152.81
2022-11-17T21:59:12.454Z,98158.91
2022-11-17T22:01:41.174Z,98153.69
2022-11-17T22:04:10.114Z,98145.88
2022-11-17T22:06:39.286Z,98161.53
2022-11-17T22:09:09.647Z,98149.34
2022-11-17T22:11:39.098Z,98153.69
2022-11-17T22:14:11.948Z,98145.84
2022-11-17T22:16:41.845Z,98144.13
2022-11-17T22:19:10.947Z,98155.44
2022-11-17T22:21:40.164Z,98151.06
2022-11-17T22:24:12.331Z,98159.78
2022-11-17T22:26:42.206Z,98154.59
2022-11-17T22:29:15.117Z,98153.69
2022-11-17T22:31:44.081Z,98155.47
2022-11-17T22:34:12.510Z,98158.91
2022-11-17T22:36:40.953Z,98161.56
2022-11-17T22:39:10.886Z,98166.78
2022-11-17T22:41:39.395Z,98171.97
2022-11-17T22:44:07.852Z,98181.56
2022-11-17T22:46:36.316Z,98190.25
2022-11-17T22:49:04.686Z,98187.63
2022-11-17T22:51:50.410Z,98190.25
2022-11-17T22:54:20.107Z,98189.38
2022-11-17T22:56:48.512Z,98188.53
2022-11-17T22:59:17.511Z,98190.25
2022-11-17T23:01:46.139Z,98196.34
2022-11-17T23:04:16.328Z,98197.19
2022-11-17T23:06:45.049Z,98203.31
2022-11-17T23:09:13.474Z,98203.31
2022-11-17T23:11:43.688Z,98203.31
2022-11-17T23:14:14.006Z,98205.94
2022-11-17T23:16:42.945Z,98212.00
2022-11-17T23:19:13.580Z,98206.78
2022-11-17T23:21:42.849Z,98205.91
2022-11-17T23:24:12.966Z,98203.31
2022-11-17T23:26:43.301Z,98212.03
2022-11-17T23:29:11.760Z,98210.25
2022-11-17T23:31:40.212Z,98203.31
2022-11-17T23:34:09.857Z,98208.53
2022-11-17T23:36:38.208Z,98210.28
2022-11-17T23:39:06.596Z,98210.28
2022-11-17T23:41:34.975Z,98207.66
2022-11-17T23:44:05.166Z,98208.53
2022-11-17T23:46:33.565Z,98217.22
2022-11-17T23:49:02.054Z,98223.31
2022-11-17T23:51:30.462Z,98223.31
2022-11-17T23:53:59.856Z,98222.47
2022-11-17T23:56:28.522Z,98226.81
2022-11-17T23:58:56.995Z,98227.69
